Pagina principale
METAR-TAF:

METAR-TAF

Aeroporti :

Aeroporto di Roma-Urbe

Roma, Italia

latitudine: 41-57N, longitudine: 012-30E, altezza: 18 m

Osservazione

Il bollettino è stato emesso 5 ore e 7 minuti fa, alle 17:50 UTC
Vento 7 kt da ovest, variando fra sud/sud-ovest e ovest/nord-ovest
Temperature 17°C
Umidità 72%
Pressione 1013 hPa
Visibilità 10 km o più
nessuna nube inferiore a 1500 m e nessun cumulonembo

METAR: LIRU 151750Z 26007KT 210V300 CAVOK 17/12 Q1013

Ora: 00:57 (22:57 UTC)

Previsione

Il bollettino è stato emesso 8 ore e 57 minuti fa, alle 14:00 UTC
Previsione valida dal 15 alle 15 UTC al 15 alle 24 UTC
Vento 10 kt da ovest
Visibilità 10 km o più
Nubi sparse ad un'altezza di 3000 ft
Evoluzione graduale
dal 15 alle 16 UTC al 15 alle 18 UTC
Vento 5 kt da direzioni variabili

TAF: LIRU 151400Z 1515/1524 26010KT 9999 SCT030 BECMG 1516/1518 VRB05KT

Osservazioni e previsioni meteorologiche di più di 4000 aeroporti (messaggi METAR e TAF).

Le stazioni disponibili sono rappresentate dai dischi gialli e rossi sulla carta.

Puntare il mouse per vedere il nome della stazione.

Clicca sopra per visualizzare le osservazioni e previsioni meteorologiche.

Per cambiare la mappa : fare clic sui pulsanti verdi con una croce nera per ingrandire, il pulsante verde con un trattino per diminuire, o sulla freccia verde per le mappe adiacenti.


METAR-TAF: